Time;durP1;ratioP1;P1;durP2;ratioP2;P2;SDS_P1;SDS_P2;PMS_P1;PMS_P2;Temp;Humidity;BMP_temperature;BMP_pressure;BME280_temperature;BME280_humidity;BME280_pressure;Samples;Min_cycle;Max_cycle;Signal;HPM_P1;HPM_P2
2022/05/11 00:01:02;;;;;;;4.83;2.63;;;15.40;51.40;;;;;;4977063;28;20244;-71
2022/05/11 00:03:29;;;;;;;3.80;2.43;;;15.40;51.60;;;;;;4972130;28;20272;-71
2022/05/11 00:05:55;;;;;;;6.30;2.50;;;15.30;51.70;;;;;;4978412;28;20296;-71
2022/05/11 00:08:24;;;;;;;2.40;2.20;;;15.30;51.90;;;;;;4978811;28;20247;-71
2022/05/11 00:10:50;;;;;;;3.97;2.07;;;15.30;52.10;;;;;;4976802;28;20204;-71
2022/05/11 00:13:17;;;;;;;2.73;2.20;;;15.20;52.20;;;;;;4978882;28;20560;-71
2022/05/11 00:15:44;;;;;;;6.87;2.73;;;15.20;52.30;;;;;;4979775;28;20303;-72
2022/05/11 00:18:11;;;;;;;4.23;2.57;;;15.10;52.40;;;;;;4978808;28;20205;-72
2022/05/11 00:20:38;;;;;;;5.90;2.93;;;15.10;52.60;;;;;;4978399;28;20247;-72
2022/05/11 00:23:05;;;;;;;4.87;2.20;;;15.00;52.80;;;;;;4985194;28;20201;-71
2022/05/11 00:25:34;;;;;;;5.60;2.30;;;15.00;52.80;;;;;;4973323;28;20212;-71
2022/05/11 00:28:01;;;;;;;6.33;2.67;;;14.90;52.80;;;;;;4971540;28;20339;-72
2022/05/11 00:30:31;;;;;;;3.37;2.30;;;14.90;53.00;;;;;;4977240;28;20274;-72
2022/05/11 00:33:00;;;;;;;4.43;2.40;;;14.90;53.10;;;;;;4977517;28;20240;-71
2022/05/11 00:35:29;;;;;;;4.67;2.60;;;14.90;53.20;;;;;;4978570;28;20209;-72
2022/05/11 00:37:56;;;;;;;5.17;2.70;;;14.80;53.30;;;;;;4978435;28;20295;-72
2022/05/11 00:40:24;;;;;;;6.97;3.23;;;14.80;53.50;;;;;;4976298;28;20255;-72
2022/05/11 00:42:53;;;;;;;5.70;2.60;;;14.70;53.60;;;;;;4976201;28;20276;-72
2022/05/11 00:45:20;;;;;;;3.50;2.63;;;14.70;53.70;;;;;;4977150;28;20208;-71
2022/05/11 00:47:52;;;;;;;6.83;2.77;;;14.70;53.90;;;;;;4978477;28;20692;-71
2022/05/11 00:50:21;;;;;;;3.97;2.33;;;14.70;54.00;;;;;;4977345;28;20204;-72
2022/05/11 00:52:51;;;;;;;3.07;2.30;;;14.70;54.00;;;;;;4977377;28;20247;-71
2022/05/11 00:55:23;;;;;;;4.53;3.00;;;14.70;54.00;;;;;;4977875;28;20200;-71
2022/05/11 00:58:00;;;;;;;4.93;3.00;;;14.70;53.90;;;;;;4977662;28;20197;-72
2022/05/11 01:00:28;;;;;;;6.57;2.90;;;14.70;53.90;;;;;;4990318;28;20235;-72
2022/05/11 01:03:01;;;;;;;4.60;2.77;;;14.70;54.00;;;;;;4976817;28;20626;-72
2022/05/11 01:05:28;;;;;;;7.00;2.83;;;14.70;54.10;;;;;;4978503;28;20579;-72
2022/05/11 01:07:57;;;;;;;5.27;2.87;;;14.70;54.10;;;;;;4977290;28;20228;-72
2022/05/11 01:10:26;;;;;;;6.43;2.97;;;14.70;54.10;;;;;;4973983;28;20299;-71
2022/05/11 01:12:57;;;;;;;4.90;2.37;;;14.70;54.20;;;;;;4975667;28;20216;-71
2022/05/11 01:15:29;;;;;;;7.67;2.70;;;14.70;54.30;;;;;;4976873;28;20201;-72
2022/05/11 01:17:57;;;;;;;8.67;2.60;;;14.70;54.20;;;;;;4975536;28;20581;-71
2022/05/11 01:20:25;;;;;;;5.27;2.80;;;14.70;54.30;;;;;;4976689;28;20217;-71
2022/05/11 01:23:00;;;;;;;4.70;3.00;;;14.70;54.30;;;;;;4976467;28;20240;-72
2022/05/11 01:25:29;;;;;;;8.07;2.60;;;14.70;54.30;;;;;;4969445;28;20277;-72
2022/05/11 01:28:02;;;;;;;7.57;2.90;;;14.70;54.40;;;;;;4976731;28;20228;-71
2022/05/11 01:30:30;;;;;;;5.87;2.93;;;14.60;54.50;;;;;;4976676;28;20727;-72
2022/05/11 01:32:57;;;;;;;5.60;3.00;;;14.60;54.60;;;;;;4976546;28;20295;-71
2022/05/11 01:35:47;;;;;;;6.00;3.13;;;14.60;54.60;;;;;;4977169;28;20223;-72
2022/05/11 01:38:24;;;;;;;4.40;3.00;;;14.60;54.80;;;;;;4977421;28;20236;-72
2022/05/11 01:40:52;;;;;;;5.23;3.07;;;14.50;55.00;;;;;;4977375;28;20239;-72
2022/05/11 01:43:21;;;;;;;3.63;2.80;;;14.50;55.20;;;;;;4962773;28;20288;-71
2022/05/11 01:45:48;;;;;;;7.60;2.90;;;14.50;55.40;;;;;;4976181;28;20250;-71
2022/05/11 01:48:16;;;;;;;5.00;2.90;;;14.40;55.40;;;;;;4977150;28;20235;-71
2022/05/11 01:50:43;;;;;;;6.47;3.10;;;14.30;55.60;;;;;;4975858;28;20303;-72
2022/05/11 01:53:10;;;;;;;5.47;3.33;;;14.30;55.80;;;;;;4976802;28;20340;-72
2022/05/11 01:55:37;;;;;;;3.93;2.67;;;14.30;55.90;;;;;;4977583;28;20217;-71
2022/05/11 01:58:07;;;;;;;4.67;2.80;;;14.20;56.00;;;;;;4976615;28;20236;-72
2022/05/11 02:00:35;;;;;;;6.30;2.97;;;14.20;56.20;;;;;;4977052;28;20609;-72
2022/05/11 02:03:02;;;;;;;7.33;3.33;;;14.10;56.30;;;;;;4976105;28;20216;-72
2022/05/11 02:08:13;;;;;;;5.40;2.53;;;14.10;56.30;;;;;;4974980;28;20224;-71
2022/05/11 02:10:40;;;;;;;5.27;3.07;;;14.10;56.30;;;;;;4975665;28;20212;-72
2022/05/11 02:13:09;;;;;;;5.77;2.80;;;14.10;56.30;;;;;;4985773;28;20295;-72
2022/05/11 02:15:37;;;;;;;9.40;3.00;;;14.10;56.30;;;;;;4981629;28;20213;-71
2022/05/11 02:18:04;;;;;;;7.53;2.77;;;14.10;56.30;;;;;;4975881;28;20208;-72
2022/05/11 02:20:31;;;;;;;7.10;3.20;;;14.10;56.30;;;;;;4975469;28;20209;-71
2022/05/11 02:22:58;;;;;;;6.77;3.03;;;14.10;56.30;;;;;;4975333;28;20201;-71
2022/05/11 02:25:25;;;;;;;5.17;3.17;;;14.10;56.30;;;;;;4977274;28;20665;-72
2022/05/11 02:27:53;;;;;;;7.10;2.90;;;14.10;56.30;;;;;;4974119;28;20630;-71
2022/05/11 02:30:24;;;;;;;3.97;2.80;;;14.10;56.10;;;;;;4973735;28;20243;-71
2022/05/11 02:32:51;;;;;;;10.43;3.60;;;14.10;56.10;;;;;;4975227;28;20232;-72
2022/05/11 02:35:18;;;;;;;4.50;2.50;;;14.20;56.00;;;;;;4978693;28;20299;-71
2022/05/11 02:37:50;;;;;;;6.37;2.70;;;14.10;55.60;;;;;;4979269;28;20304;-72
2022/05/11 02:40:19;;;;;;;4.27;3.10;;;14.20;55.70;;;;;;4978501;28;20541;-72
2022/05/11 02:42:46;;;;;;;3.97;2.80;;;14.20;55.80;;;;;;4980947;28;20239;-72
2022/05/11 02:45:14;;;;;;;5.00;2.70;;;14.30;55.90;;;;;;4979713;28;20247;-73
2022/05/11 02:47:45;;;;;;;6.30;3.20;;;14.20;56.00;;;;;;4977301;28;20229;-72
2022/05/11 02:50:14;;;;;;;8.17;3.00;;;14.20;55.90;;;;;;4978218;28;20299;-71
2022/05/11 02:52:41;;;;;;;7.13;3.33;;;14.20;56.10;;;;;;4979689;28;20574;-72
2022/05/11 02:55:09;;;;;;;6.57;3.03;;;14.20;56.30;;;;;;4993414;28;20711;-71
2022/05/11 02:57:36;;;;;;;4.57;2.93;;;14.20;56.40;;;;;;4978262;28;20729;-72
2022/05/11 03:00:06;;;;;;;9.63;3.10;;;14.10;56.40;;;;;;4978495;28;20299;-72
2022/05/11 03:02:33;;;;;;;6.67;3.10;;;14.10;56.30;;;;;;4979647;28;20641;-72
2022/05/11 03:05:02;;;;;;;5.53;2.90;;;14.10;56.50;;;;;;4979839;28;20218;-71
2022/05/11 03:07:29;;;;;;;4.20;3.00;;;14.10;56.70;;;;;;4978475;28;20230;-71
2022/05/11 03:09:56;;;;;;;5.67;2.77;;;14.10;56.70;;;;;;4977550;28;20212;-72
2022/05/11 03:12:23;;;;;;;4.70;3.00;;;14.10;56.80;;;;;;4978314;28;20300;-71
2022/05/11 03:14:50;;;;;;;4.97;2.87;;;14.00;56.70;;;;;;4978342;28;20643;-72
2022/05/11 03:17:17;;;;;;;6.27;2.57;;;14.10;56.90;;;;;;4978614;28;20205;-72
2022/05/11 03:19:44;;;;;;;6.93;2.80;;;14.00;56.70;;;;;;4978023;28;20228;-72
2022/05/11 03:22:12;;;;;;;7.93;2.60;;;14.00;56.80;;;;;;4978089;28;20243;-71
2022/05/11 03:24:39;;;;;;;4.47;2.70;;;14.00;57.00;;;;;;4976981;28;20292;-72
2022/05/11 03:27:07;;;;;;;5.63;2.57;;;13.90;56.90;;;;;;4978429;28;20752;-72
2022/05/11 03:29:34;;;;;;;6.30;3.10;;;13.90;57.00;;;;;;4974963;28;20303;-71
2022/05/11 03:34:46;;;;;;;4.30;2.80;;;13.90;57.30;;;;;;4976957;28;20204;-71
2022/05/11 03:37:17;;;;;;;7.20;3.23;;;13.90;57.40;;;;;;4976741;28;20830;-73
2022/05/11 03:39:44;;;;;;;6.07;3.13;;;13.90;58.10;;;;;;4976144;28;20212;-72
2022/05/11 03:42:13;;;;;;;3.87;3.00;;;13.90;57.80;;;;;;4977328;28;20211;-72
2022/05/11 03:44:41;;;;;;;4.77;3.00;;;13.90;57.90;;;;;;4977038;28;20221;-72
2022/05/11 03:47:08;;;;;;;4.80;3.30;;;13.90;58.00;;;;;;4975825;28;20212;-71
2022/05/11 03:49:35;;;;;;;5.80;3.30;;;13.90;58.10;;;;;;4975953;28;20568;-72
2022/05/11 03:52:03;;;;;;;7.87;3.23;;;13.90;58.20;;;;;;4976481;28;20331;-71
2022/05/11 03:54:31;;;;;;;7.03;3.07;;;13.90;58.20;;;;;;4977361;28;20243;-72
2022/05/11 03:56:59;;;;;;;6.50;3.17;;;13.90;58.90;;;;;;4976990;28;20211;-71
2022/05/11 03:59:25;;;;;;;5.10;3.30;;;13.90;58.60;;;;;;4976149;28;20219;-71
2022/05/11 04:01:52;;;;;;;4.90;2.90;;;13.90;58.20;;;;;;4976364;28;20301;-71
2022/05/11 04:04:19;;;;;;;6.80;3.27;;;13.90;58.40;;;;;;4976852;28;20205;-72
2022/05/11 04:06:46;;;;;;;6.70;3.30;;;13.90;58.70;;;;;;4975739;28;20212;-72
2022/05/11 04:09:13;;;;;;;5.07;3.27;;;13.90;58.90;;;;;;4974835;28;20236;-72
2022/05/11 04:11:41;;;;;;;7.60;3.80;;;13.90;59.00;;;;;;4973959;28;20209;-72
2022/05/11 04:14:08;;;;;;;8.93;3.33;;;14.00;59.00;;;;;;4975755;28;20232;-72
2022/05/11 04:16:35;;;;;;;8.23;3.30;;;14.00;59.00;;;;;;4976500;28;20244;-72
2022/05/11 04:19:01;;;;;;;7.50;3.47;;;14.10;59.00;;;;;;4972599;28;20779;-72
2022/05/11 04:21:29;;;;;;;5.73;3.03;;;14.20;59.10;;;;;;4970952;28;20221;-71
2022/05/11 04:23:56;;;;;;;5.00;3.47;;;14.20;58.90;;;;;;4975181;28;20708;-72
2022/05/11 04:26:23;;;;;;;5.63;2.93;;;14.30;58.70;;;;;;4977547;28;20209;-71
2022/05/11 04:28:51;;;;;;;6.00;3.10;;;14.30;58.60;;;;;;4975702;28;20244;-73
2022/05/11 04:31:18;;;;;;;5.20;3.17;;;14.40;58.70;;;;;;4975756;28;20209;-72
2022/05/11 04:33:47;;;;;;;7.17;3.20;;;14.40;58.80;;;;;;4975982;28;20288;-73
2022/05/11 04:36:14;;;;;;;6.27;3.40;;;14.40;58.80;;;;;;4976582;28;20227;-73
2022/05/11 04:38:40;;;;;;;5.83;3.70;;;14.40;58.80;;;;;;4975117;28;20316;-72
2022/05/11 04:41:08;;;;;;;4.93;3.50;;;14.50;59.00;;;;;;4975652;28;20267;-72
2022/05/11 04:43:35;;;;;;;5.87;3.07;;;14.50;59.10;;;;;;4975922;28;20237;-72
2022/05/11 04:46:03;;;;;;;9.33;3.23;;;14.50;59.00;;;;;;4975758;28;20658;-72
2022/05/11 04:48:30;;;;;;;7.73;3.40;;;14.50;59.20;;;;;;4976151;28;20727;-72
2022/05/11 04:51:01;;;;;;;7.73;3.47;;;14.60;59.90;;;;;;4975101;28;20307;-71
2022/05/11 04:53:28;;;;;;;8.23;3.47;;;14.70;59.30;;;;;;4974329;28;20523;-73
2022/05/11 04:55:55;;;;;;;5.80;3.37;;;14.70;59.10;;;;;;4975924;28;20208;-72
2022/05/11 04:58:22;;;;;;;8.57;3.57;;;14.80;59.10;;;;;;4974208;28;20299;-71
2022/05/11 05:00:49;;;;;;;7.03;3.50;;;14.90;59.20;;;;;;4973289;28;20352;-72
2022/05/11 05:03:20;;;;;;;6.33;3.30;;;14.90;59.20;;;;;;4972482;28;20200;-71
2022/05/11 05:05:47;;;;;;;5.93;3.37;;;14.90;59.40;;;;;;4976284;28;20329;-73
2022/05/11 05:08:14;;;;;;;6.67;3.20;;;14.90;59.50;;;;;;4974693;28;20323;-72
2022/05/11 05:10:43;;;;;;;5.37;3.20;;;15.00;59.50;;;;;;4974298;28;20303;-71
2022/05/11 05:13:12;;;;;;;7.37;3.57;;;15.00;60.30;;;;;;4974364;28;20645;-71
2022/05/11 05:15:42;;;;;;;6.77;3.73;;;15.10;59.70;;;;;;4973257;28;20689;-71
2022/05/11 05:18:09;;;;;;;7.10;3.70;;;15.20;59.80;;;;;;4972822;28;20205;-72
2022/05/11 05:20:38;;;;;;;13.67;3.77;;;15.20;59.90;;;;;;4974452;28;20259;-72
2022/05/11 05:23:06;;;;;;;7.53;3.23;;;15.30;60.50;;;;;;4975403;28;20208;-72
2022/05/11 05:25:32;;;;;;;6.03;3.17;;;15.30;59.80;;;;;;4974457;28;20233;-71
2022/05/11 05:33:27;;;;;;;9.53;3.47;;;15.50;59.80;;;;;;4964001;28;20393;-69
2022/05/11 05:35:56;;;;;;;11.07;3.73;;;15.60;60.20;;;;;;4975675;28;20307;-72
2022/05/11 05:38:22;;;;;;;6.60;3.70;;;15.60;60.00;;;;;;4976159;28;20296;-72
2022/05/11 05:40:49;;;;;;;4.93;3.37;;;15.70;60.00;;;;;;4975909;28;20299;-71
2022/05/11 05:43:16;;;;;;;8.80;3.63;;;15.80;60.70;;;;;;4976118;28;20296;-72
2022/05/11 05:45:48;;;;;;;9.57;3.70;;;15.80;59.90;;;;;;4960531;28;20693;-71
2022/05/11 05:48:15;;;;;;;5.97;3.47;;;15.90;60.10;;;;;;4959273;28;20235;-73
2022/05/11 05:50:42;;;;;;;10.13;3.87;;;16.00;60.10;;;;;;4958391;28;20213;-70
2022/05/11 05:53:11;;;;;;;13.63;3.87;;;16.00;60.00;;;;;;4959930;28;20300;-71
2022/05/11 05:55:37;;;;;;;9.17;3.87;;;16.10;60.00;;;;;;4975431;28;20208;-71
2022/05/11 05:58:05;;;;;;;7.13;3.70;;;16.30;60.30;;;;;;4972659;28;20243;-72
2022/05/11 06:00:32;;;;;;;11.70;4.10;;;16.30;60.20;;;;;;4986278;28;20208;-72
2022/05/11 06:03:00;;;;;;;14.63;3.63;;;16.40;60.30;;;;;;4968161;28;20300;-72
2022/05/11 06:05:28;;;;;;;6.82;3.95;;;16.50;60.20;;;;;;4974641;28;20208;-72
2022/05/11 06:07:56;;;;;;;13.90;4.20;;;16.60;60.20;;;;;;4964676;28;20665;-71
2022/05/11 06:10:24;;;;;;;9.57;3.38;;;16.70;60.20;;;;;;4974886;28;20212;-71
2022/05/11 06:12:51;;;;;;;17.60;4.37;;;16.80;60.30;;;;;;4964700;28;20308;-72
2022/05/11 06:15:19;;;;;;;9.07;3.97;;;16.90;60.20;;;;;;4964911;28;20209;-72
2022/05/11 06:17:46;;;;;;;10.97;4.07;;;16.90;60.10;;;;;;4962460;28;20240;-72
2022/05/11 06:20:13;;;;;;;7.05;3.85;;;17.00;60.00;;;;;;4966674;28;20270;-71
2022/05/11 06:22:41;;;;;;;9.77;4.05;;;17.10;60.10;;;;;;4974036;28;20215;-70
2022/05/11 06:25:08;;;;;;;8.50;3.30;;;17.10;60.00;;;;;;4977153;28;20291;-70
2022/05/11 06:27:37;;;;;;;8.73;4.05;;;17.20;61.00;;;;;;4977778;28;20225;-70
2022/05/11 06:30:05;;;;;;;9.75;3.58;;;16.90;59.90;;;;;;4973600;28;20327;-69
2022/05/11 06:32:32;;;;;;;8.93;3.80;;;17.40;60.10;;;;;;4973601;28;20201;-68
2022/05/11 06:34:59;;;;;;;9.52;4.28;;;17.40;60.00;;;;;;4976715;28;20219;-70
2022/05/11 06:37:26;;;;;;;9.05;4.05;;;17.50;60.10;;;;;;4976157;28;20729;-71
2022/05/11 06:39:53;;;;;;;9.32;4.20;;;17.60;60.00;;;;;;4974281;28;20229;-69
2022/05/11 06:42:21;;;;;;;9.07;3.42;;;17.60;60.10;;;;;;4971937;28;20236;-69
2022/05/11 06:44:50;;;;;;;11.65;3.55;;;17.70;60.10;;;;;;4969378;28;20219;-69
2022/05/11 06:47:17;;;;;;;9.45;3.72;;;17.80;60.10;;;;;;4977691;28;20243;-70
2022/05/11 06:49:44;;;;;;;15.75;4.28;;;17.80;60.10;;;;;;4980364;28;20636;-70
2022/05/11 06:52:11;;;;;;;11.65;3.97;;;17.90;60.10;;;;;;4979995;28;20247;-71
2022/05/11 07:00:09;;;;;;;10.85;3.55;;;18.20;60.30;;;;;;4977924;28;20275;-69
2022/05/11 07:02:37;;;;;;;10.25;3.92;;;18.30;60.10;;;;;;4985432;28;20247;-69
2022/05/11 07:05:05;;;;;;;9.35;3.80;;;18.40;60.20;;;;;;4978297;28;20208;-71
2022/05/11 07:07:32;;;;;;;9.27;4.13;;;18.60;60.40;;;;;;4978157;28;20209;-70
2022/05/11 07:09:59;;;;;;;12.45;3.72;;;18.70;60.20;;;;;;4976223;28;20225;-69
2022/05/11 07:12:32;;;;;;;12.35;4.78;;;18.70;60.00;;;;;;4963317;28;20208;-68
2022/05/11 07:15:00;;;;;;;10.02;3.75;;;18.80;60.10;;;;;;4975887;28;20560;-71
2022/05/11 07:17:31;;;;;;;11.85;4.53;;;19.00;60.40;;;;;;4976377;28;20243;-71
2022/05/11 07:19:59;;;;;;;11.70;4.38;;;19.20;60.30;;;;;;4968496;28;20228;-70
2022/05/11 07:22:27;;;;;;;13.50;4.03;;;19.30;59.90;;;;;;4977009;28;20291;-70
2022/05/11 07:24:54;;;;;;;6.45;3.80;;;19.60;59.90;;;;;;4977350;28;20304;-69
2022/05/11 07:27:22;;;;;;;14.32;4.18;;;19.70;59.60;;;;;;4977489;28;20570;-71
2022/05/11 07:29:49;;;;;;;9.70;4.28;;;19.80;59.50;;;;;;4973877;28;20248;-70
2022/05/11 07:32:16;;;;;;;9.77;3.58;;;20.00;59.30;;;;;;4972607;28;20785;-68
2022/05/11 07:34:44;;;;;;;11.77;4.28;;;20.20;59.40;;;;;;4978314;28;20240;-67
2022/05/11 07:37:11;;;;;;;8.82;4.00;;;20.40;59.40;;;;;;4980321;28;20211;-68
2022/05/11 07:39:39;;;;;;;8.60;3.83;;;20.60;59.20;;;;;;4977451;28;20569;-68
2022/05/11 07:42:06;;;;;;;14.45;4.10;;;20.80;58.80;;;;;;4975709;28;20972;-67
2022/05/11 07:44:34;;;;;;;11.82;4.15;;;21.00;58.50;;;;;;4978202;28;20220;-70
2022/05/11 07:47:00;;;;;;;12.57;4.10;;;21.20;58.40;;;;;;4975691;28;20215;-71
2022/05/11 07:49:27;;;;;;;7.88;3.55;;;21.40;58.30;;;;;;4974063;28;20228;-70
2022/05/11 07:51:55;;;;;;;11.00;3.70;;;21.60;57.90;;;;;;4975782;28;20217;-68
2022/05/11 07:54:22;;;;;;;8.35;4.25;;;21.80;57.60;;;;;;4977512;28;20810;-71
2022/05/11 08:02:26;;;;;;;12.82;3.95;;;22.10;57.10;;;;;;4975251;28;20196;-70
2022/05/11 08:04:57;;;;;;;11.95;4.05;;;22.20;57.30;;;;;;4972715;28;20224;-68
2022/05/11 08:07:27;;;;;;;11.15;3.88;;;22.30;57.20;;;;;;4971556;28;20251;-68
2022/05/11 08:09:57;;;;;;;8.75;3.55;;;22.40;57.30;;;;;;4976492;28;20243;-69
2022/05/11 08:12:24;;;;;;;9.57;4.10;;;22.60;57.10;;;;;;4977072;28;20224;-71
2022/05/11 08:14:51;;;;;;;8.13;4.00;;;22.80;57.00;;;;;;4977263;28;20240;-70
2022/05/11 08:17:24;;;;;;;8.10;3.63;;;22.90;57.10;;;;;;4976760;28;20243;-71
2022/05/11 08:19:51;;;;;;;10.30;4.15;;;23.10;56.80;;;;;;4962890;28;20225;-72
2022/05/11 08:22:18;;;;;;;7.10;3.63;;;23.30;56.50;;;;;;4968368;28;20304;-71
2022/05/11 08:24:46;;;;;;;11.75;4.32;;;23.40;56.60;;;;;;4962509;28;20292;-72
2022/05/11 08:27:16;;;;;;;13.13;4.10;;;23.50;56.30;;;;;;4969663;28;20208;-71
2022/05/11 08:35:12;;;;;;;11.02;4.03;;;23.80;56.20;;;;;;4977413;28;20197;-74
2022/05/11 08:37:38;;;;;;;8.70;3.75;;;23.80;56.10;;;;;;4975177;28;20265;-73
2022/05/11 08:40:08;;;;;;;8.05;3.95;;;23.90;56.30;;;;;;4963888;28;20280;-72
2022/05/11 08:42:36;;;;;;;10.02;4.13;;;24.00;56.20;;;;;;4965439;28;20205;-71
2022/05/11 08:45:03;;;;;;;9.25;4.22;;;24.10;56.30;;;;;;4971184;28;20653;-72
2022/05/11 08:47:43;;;;;;;14.30;4.07;;;24.30;56.50;;;;;;4972255;28;20219;-72
2022/05/11 08:50:13;;;;;;;9.93;3.92;;;24.40;56.10;;;;;;4975838;28;20220;-73
2022/05/11 08:52:50;;;;;;;11.02;4.10;;;24.60;56.10;;;;;;4973492;28;20220;-72
2022/05/11 08:55:37;;;;;;;14.20;3.47;;;24.70;56.00;;;;;;4975874;28;20204;-72
2022/05/11 08:58:11;;;;;;;7.57;3.65;;;25.00;56.00;;;;;;4971817;28;20724;-72
2022/05/11 09:00:42;;;;;;;12.15;4.20;;;25.10;55.50;;;;;;4973602;28;20284;-74
2022/05/11 09:03:15;;;;;;;10.60;3.50;;;25.20;55.40;;;;;;4972518;28;20245;-71
2022/05/11 09:05:42;;;;;;;15.27;4.68;;;25.30;55.20;;;;;;4969285;28;20215;-71
2022/05/11 09:08:12;;;;;;;5.78;3.47;;;25.60;55.10;;;;;;4963851;28;20292;-71
2022/05/11 09:10:41;;;;;;;8.63;4.57;;;25.80;54.90;;;;;;4971946;28;20300;-72
2022/05/11 09:13:11;;;;;;;8.95;3.50;;;26.00;54.50;;;;;;4970358;28;20209;-73
2022/05/11 09:15:49;;;;;;;8.98;4.00;;;26.10;54.10;;;;;;4972414;28;20224;-71
2022/05/11 09:18:16;;;;;;;11.10;5.38;;;26.20;54.30;;;;;;4970183;28;20601;-72
2022/05/11 09:20:48;;;;;;;11.35;4.82;;;26.30;53.90;;;;;;4970202;28;20287;-71
2022/05/11 09:23:15;;;;;;;8.98;4.28;;;26.50;53.70;;;;;;4966992;28;20204;-71
2022/05/11 09:25:59;;;;;;;9.90;4.15;;;26.70;53.60;;;;;;4972851;28;20323;-72
2022/05/11 09:28:28;;;;;;;8.30;4.25;;;26.90;53.50;;;;;;4965376;28;20239;-71
2022/05/11 09:31:01;;;;;;;6.80;4.38;;;27.00;53.30;;;;;;4974920;28;20665;-71
2022/05/11 09:33:30;;;;;;;9.95;4.05;;;27.10;53.10;;;;;;4972707;28;20212;-72
2022/05/11 09:35:57;;;;;;;6.30;4.40;;;27.20;52.90;;;;;;4965585;28;20540;-71
2022/05/11 09:38:40;;;;;;;11.70;3.83;;;27.30;52.60;;;;;;4963846;28;20241;-72
2022/05/11 09:41:14;;;;;;;6.28;3.80;;;27.50;52.80;;;;;;4962782;28;20209;-72
2022/05/11 09:43:43;;;;;;;9.77;3.90;;;27.80;52.30;;;;;;4962311;28;20207;-71
2022/05/11 09:46:32;;;;;;;22.08;4.22;;;28.20;51.60;;;;;;4962708;28;20205;-72
2022/05/11 09:49:04;;;;;;;6.53;3.58;;;28.40;50.80;;;;;;4964498;28;20209;-71
2022/05/11 09:51:36;;;;;;;8.65;3.95;;;28.50;50.40;;;;;;4965284;28;20674;-70
2022/05/11 09:54:22;;;;;;;13.55;4.28;;;28.60;50.60;;;;;;4961097;28;20332;-72
2022/05/11 09:56:57;;;;;;;8.23;4.47;;;28.70;50.10;;;;;;4968429;28;20724;-71
2022/05/11 09:59:28;;;;;;;6.45;3.38;;;28.90;50.20;;;;;;4968586;28;20291;-72
2022/05/11 10:02:02;;;;;;;9.65;4.07;;;29.00;50.00;;;;;;4966958;28;20212;-71
2022/05/11 10:04:36;;;;;;;4.30;3.70;;;29.20;49.60;;;;;;4968420;28;20208;-71
2022/05/11 10:07:06;;;;;;;6.28;3.50;;;29.30;48.90;;;;;;4970574;28;20719;-72
2022/05/11 10:09:37;;;;;;;8.05;4.40;;;29.50;49.30;;;;;;4973264;28;20231;-70
2022/05/11 10:12:09;;;;;;;7.95;4.28;;;29.60;48.30;;;;;;4972048;28;20677;-70
2022/05/11 10:23:03;;;;;;;8.75;3.50;;;30.50;47.40;;;;;;4974614;28;20613;-71
2022/05/11 10:25:35;;;;;;;4.63;3.35;;;30.90;46.70;;;;;;4967676;28;20235;-70
2022/05/11 10:28:15;;;;;;;6.45;3.25;;;30.90;45.90;;;;;;4974713;28;20213;-71
2022/05/11 10:30:49;;;;;;;7.32;3.78;;;31.10;45.90;;;;;;4973670;28;20716;-71
2022/05/11 10:33:29;;;;;;;8.80;3.45;;;31.20;45.70;;;;;;4975026;28;20575;-69
2022/05/11 10:36:04;;;;;;;7.70;3.08;;;31.20;45.80;;;;;;4980684;28;20217;-72
2022/05/11 10:38:41;;;;;;;12.45;3.47;;;31.20;45.60;;;;;;4976241;28;20207;-73
2022/05/11 10:41:19;;;;;;;11.15;3.50;;;31.40;45.30;;;;;;4975887;28;20232;-72
2022/05/11 10:44:00;;;;;;;6.85;3.25;;;31.40;45.00;;;;;;4976680;28;20295;-71
2022/05/11 10:46:36;;;;;;;9.20;3.45;;;31.60;45.00;;;;;;4976285;28;20244;-71
2022/05/11 10:49:34;;;;;;;6.10;3.45;;;31.60;45.00;;;;;;4976359;28;20292;-74
2022/05/11 10:52:24;;;;;;;6.47;2.95;;;31.60;44.40;;;;;;4975606;28;20208;-71
2022/05/11 10:55:03;;;;;;;5.65;3.38;;;31.50;44.30;;;;;;4976079;28;20645;-73
2022/05/11 10:57:41;;;;;;;9.52;3.50;;;31.60;44.20;;;;;;4977257;28;20219;-72
2022/05/11 11:00:13;;;;;;;9.70;3.42;;;31.70;44.40;;;;;;4978672;28;20212;-71
2022/05/11 11:03:22;;;;;;;8.23;3.33;;;31.80;44.20;;;;;;4966264;28;20661;-71
2022/05/11 11:08:54;;;;;;;5.25;3.72;;;32.00;43.80;;;;;;4975105;28;20212;-72
2022/05/11 11:11:35;;;;;;;9.15;3.60;;;31.90;43.90;;;;;;4968602;28;20660;-72
2022/05/11 11:14:06;;;;;;;6.65;3.70;;;31.90;43.70;;;;;;4966972;28;20299;-72
2022/05/11 11:16:37;;;;;;;7.00;3.10;;;31.80;43.50;;;;;;4970842;28;20287;-71
2022/05/11 11:19:06;;;;;;;4.53;2.97;;;31.70;43.40;;;;;;4971173;28;20247;-72
2022/05/11 11:21:35;;;;;;;4.03;2.95;;;31.50;44.00;;;;;;4976793;28;20209;-71
2022/05/11 11:24:17;;;;;;;7.88;3.78;;;31.60;43.70;;;;;;4975761;28;20205;-71
2022/05/11 11:26:49;;;;;;;5.25;3.63;;;31.60;43.20;;;;;;4967879;28;20206;-72
2022/05/11 11:29:20;;;;;;;7.45;3.65;;;31.70;43.50;;;;;;4972317;28;20602;-71
2022/05/11 11:32:14;;;;;;;7.10;3.42;;;31.70;43.30;;;;;;4976692;28;20208;-78
2022/05/11 11:34:46;;;;;;;6.57;3.60;;;31.60;43.40;;;;;;4973850;28;20209;-73
2022/05/11 11:37:39;;;;;;;5.38;3.30;;;31.50;43.60;;;;;;4969987;28;20575;-70
2022/05/11 11:40:24;;;;;;;6.07;3.28;;;31.30;44.00;;;;;;4970552;28;20286;-74
2022/05/11 11:42:52;;;;;;;12.45;3.67;;;31.10;44.30;;;;;;4974532;28;20208;-73
2022/05/11 11:46:04;;;;;;;3.97;2.95;;;31.00;44.30;;;;;;4973705;28;20228;-70
2022/05/11 11:48:34;;;;;;;6.20;3.20;;;30.90;44.40;;;;;;4975172;28;20196;-74
2022/05/11 11:51:04;;;;;;;5.60;3.10;;;30.90;44.40;;;;;;4974599;28;20391;-72
2022/05/11 11:53:42;;;;;;;6.55;3.50;;;30.70;44.20;;;;;;4974090;28;20295;-70
2022/05/11 11:56:36;;;;;;;5.35;3.60;;;30.40;44.30;;;;;;4968818;28;20567;-74
2022/05/11 11:59:06;;;;;;;3.60;3.20;;;30.00;45.10;;;;;;4967181;28;20280;-74
2022/05/11 12:01:35;;;;;;;5.78;3.80;;;29.80;45.60;;;;;;4979878;28;20210;-74
2022/05/11 12:04:15;;;;;;;3.67;3.38;;;29.70;46.10;;;;;;4973674;28;20626;-70
2022/05/11 12:15:12;;;;;;;5.90;3.55;;;29.30;46.80;;;;;;4970673;28;20199;-70
2022/05/11 12:17:41;;;;;;;5.20;3.88;;;29.10;47.20;;;;;;4970852;28;20224;-70
2022/05/11 12:20:13;;;;;;;5.60;3.42;;;28.80;47.60;;;;;;4968069;28;20677;-69
2022/05/11 12:22:43;;;;;;;4.22;3.80;;;28.60;48.10;;;;;;4979601;28;20569;-69
2022/05/11 12:25:29;;;;;;;5.20;3.72;;;28.40;48.50;;;;;;4966478;28;20240;-70
2022/05/11 12:27:58;;;;;;;7.78;3.85;;;28.30;48.90;;;;;;4967736;28;20200;-70
2022/05/11 12:30:29;;;;;;;6.00;3.63;;;28.30;49.00;;;;;;4969111;28;20413;-71
2022/05/11 12:33:00;;;;;;;9.45;4.03;;;28.30;49.10;;;;;;4974055;28;20288;-71
2022/05/11 12:35:31;;;;;;;8.38;3.90;;;28.50;49.20;;;;;;4968561;28;20252;-73
2022/05/11 12:38:01;;;;;;;6.72;3.78;;;28.50;48.90;;;;;;4971781;28;20687;-71
2022/05/11 12:40:30;;;;;;;6.40;3.85;;;28.60;49.20;;;;;;4965420;28;20247;-72
2022/05/11 12:42:59;;;;;;;5.82;3.38;;;28.70;49.20;;;;;;4962464;28;20295;-71
2022/05/11 12:45:33;;;;;;;5.90;3.58;;;28.70;49.30;;;;;;4961639;28;20201;-70
2022/05/11 12:48:00;;;;;;;4.10;3.55;;;28.80;49.20;;;;;;4960473;28;20311;-70
2022/05/11 12:50:31;;;;;;;5.75;4.55;;;28.80;49.00;;;;;;4961159;28;20315;-73
2022/05/11 12:53:03;;;;;;;5.68;3.67;;;28.70;48.90;;;;;;4965083;28;20216;-70
2022/05/11 12:55:33;;;;;;;7.35;3.75;;;28.70;48.80;;;;;;4970677;28;20604;-70
2022/05/11 12:58:00;;;;;;;5.15;3.53;;;28.60;48.70;;;;;;4971147;28;20217;-71
2022/05/11 13:00:30;;;;;;;5.38;3.75;;;28.50;48.80;;;;;;4973157;28;20299;-79
2022/05/11 13:02:58;;;;;;;6.85;3.42;;;28.40;49.10;;;;;;4975376;28;20204;-70
2022/05/11 13:05:25;;;;;;;5.60;4.13;;;28.40;49.10;;;;;;4969298;28;20209;-72
2022/05/11 13:08:00;;;;;;;6.10;5.50;;;28.40;49.10;;;;;;4974345;28;20212;-70
2022/05/11 13:10:31;;;;;;;4.82;3.60;;;28.30;49.20;;;;;;4970983;28;20274;-71
2022/05/11 13:12:59;;;;;;;6.90;4.03;;;28.20;49.40;;;;;;4974422;28;20311;-70
2022/05/11 13:15:38;;;;;;;9.45;4.07;;;28.30;49.50;;;;;;4973155;28;20715;-73
2022/05/11 13:18:06;;;;;;;6.05;3.80;;;28.20;49.40;;;;;;4971570;28;20661;-70
2022/05/11 13:20:37;;;;;;;6.20;3.95;;;28.20;49.10;;;;;;4962427;28;20197;-70
2022/05/11 13:23:25;;;;;;;5.45;3.78;;;28.20;49.00;;;;;;4972209;28;20200;-70
2022/05/11 13:25:55;;;;;;;6.57;4.10;;;28.10;49.30;;;;;;4970912;28;20205;-71
2022/05/11 13:28:25;;;;;;;9.70;4.00;;;28.10;49.30;;;;;;4969797;28;20328;-72
2022/05/11 13:30:54;;;;;;;3.95;3.45;;;28.10;49.30;;;;;;4972459;28;20255;-73
2022/05/11 13:33:43;;;;;;;5.80;3.63;;;28.20;49.50;;;;;;4970769;28;20280;-72
2022/05/11 13:36:17;;;;;;;5.78;3.55;;;28.30;49.30;;;;;;4970185;28;20209;-74
2022/05/11 13:39:03;;;;;;;5.00;3.75;;;28.40;49.10;;;;;;4972467;28;20204;-72
2022/05/11 13:41:34;;;;;;;4.90;3.85;;;28.50;49.20;;;;;;4974887;28;20728;-72
2022/05/11 13:44:07;;;;;;;3.78;3.47;;;28.60;49.30;;;;;;4973607;28;20223;-72
2022/05/11 13:48:11;;;;;;;5.57;3.83;;;28.60;49.30;;;;;;4975321;28;20238;-72
2022/05/11 13:49:31;;;;;;;6.03;3.60;;;28.70;49.30;;;;;;4972724;28;21425;-72